Ridgeview, WV (25169)

05:41 AM EDT del 20 Ottobre 2014 (GMT -0400)
APRSWXNET Comfort WV US | Change Station
CLOSE
Current Station
Stazione meteo personale
Location: Bloomingrose, WV
Altitudine: 692 ft
Stazioni meteo nelle vicinanze

Alt. 692 ft 38.13 °N, 81.63 °W | Updated 38 minutes ago

Parzialmente nuvoloso
Parzialmente nuvoloso
39 °F
Sembra 39 °F
N
0
Vento Variabile Vento da SE
Gusts 1.0 mph

Oggi
Massima -- | Minima -- °F
--% Possibilità di precip.
Ieri
Massima -- | Minima -- °F
Precip. -- in
7:40 AM 6:42 PM
Luna calante, 12% visible
Pressione 30.07 in
Visibilità 6.0 miglia
Nuvole Alcuni 100 ft
Nubi sparse 25000 ft
Raffreddamento del vento 39 °F
Punto di rugiada 38 °F
Umidità 95%
Piovosità 0.00 in
Spessore del manto nevoso Non disponibile.
Raggi UV 0 fuori da 12
Polline .90 fuori da 12
Qualità dell'aria Non disponibile.
Flu Activity Sporadic
METAR KCRW 200854Z 00000KT 6SM BR FEW001 SCT250 03/02 A3007 RMK AO2 SLP183 DNS VLY FG T00280022 57003

More Conditions Fewer Conditions

Pressione 30.07 in
Visibilità 6.0 miglia
Nuvole Alcuni 100 ft
Nubi sparse 25000 ft
Raffreddamento del vento 39 °F
Punto di rugiada 38 °F
Umidità 95%
Piovosità 0.00 in
Spessore del manto nevoso Non disponibile.
Raggi UV 0 fuori da 12
Polline .90 fuori da 12
Qualità dell'aria Non disponibile.
Flu Activity Sporadic
METAR KCRW 200854Z 00000KT 6SM BR FEW001 SCT250 03/02 A3007 RMK AO2 SLP183 DNS VLY FG T00280022 57003

More Conditions Fewer Conditions

10-Day Weather Forecast

Almanac

Astronomia

Oct. 20, 2014 Alba Tramonto
Ora attuale 07:40 EDT 18:42 EDT
Crepuscolo civile 07:13 EDT 19:09 EDT
Crepuscolo nautico 06:43 EDT 19:39 EDT
Crepuscolo astronomico 06:12 EDT 20:10 EDT
Luna 04:30 EDT 17:02 EDT
Estensione della luce visibile 11h 55m
Lunghezza del giorno
11h 01m
Luna calante, 12% of the Moon is Illuminated
Oggi
Luna calante
Ott 23
Nuovo
Ott 30
Primo quarto
Nov 6
Luna piena
Nov 14
Ultimo quarto

Gli estremi di oggi

State Highs State Lows

Community

WunderPhotos

Upload Photos

1,763,325 foto caricate!

Nearby

Profondità neve

Stazione Profondità Altitudine
Non sono state evidenziate nuove nevicate

Attività sismica

Città  Distanza Mag. Data & Ora
Non sono state riportate attività sismiche nelle vicinanze.
Minimo Magnitudo Mostrato è 2.5.

Temperature delle acque costiere

Località Temperatura
Nessun dato dalle stazioni

Stazioni meteo nelle vicinanze